Time;durP1;ratioP1;P1;durP2;ratioP2;P2;SDS_P1;SDS_P2;PMS_P1;PMS_P2;Temp;Humidity;BMP_temperature;BMP_pressure;BME280_temperature;BME280_humidity;BME280_pressure;Samples;Min_cycle;Max_cycle;Signal;HPM_P1;HPM_P2
2022/09/12 00:01:34;;;;;;;;;;;;;;;20.15;100.00;99118.53;5071997;28;20400;-41
2022/09/12 00:03:59;;;;;;;;;;;;;;;20.45;100.00;99121.59;5071199;28;19967;-41
2022/09/12 00:06:26;;;;;;;;;;;;;;;20.51;100.00;99119.50;5072479;28;20031;-41
2022/09/12 00:08:55;;;;;;;;;;;;;;;20.59;100.00;99118.03;5052616;28;19920;-41
2022/09/12 00:11:20;;;;;;;;;;;;;;;20.39;100.00;99127.28;5071679;28;20040;-41
2022/09/12 00:13:45;;;;;;;;;;;;;;;20.42;100.00;99119.22;5073467;28;20392;-41
2022/09/12 00:16:15;;;;;;;;;;;;;;;20.34;100.00;99124.13;5070688;28;20502;-42
2022/09/12 00:18:40;;;;;;;;;;;;;;;20.28;100.00;99124.59;5071512;28;19920;-42
2022/09/12 00:21:06;;;;;;;;;;;;;;;20.35;100.00;99125.00;5071798;28;19931;-42
2022/09/12 00:23:31;;;;;;;;;;;;;;;20.50;100.00;99117.81;5071597;28;19966;-41
2022/09/12 00:25:57;;;;;;;;;;;;;;;20.55;100.00;99120.94;5071596;28;19916;-41
2022/09/12 00:28:22;;;;;;;;;;;;;;;20.35;100.00;99115.34;5071912;28;19921;-41
2022/09/12 00:30:48;;;;;;;;;;;;;;;20.32;100.00;99120.81;5070374;28;20050;-41
2022/09/12 00:33:14;;;;;;;;;;;;;;;20.52;100.00;99108.09;5071054;28;20030;-42
2022/09/12 00:35:40;;;;;;;;;;;;;;;20.55;100.00;99105.25;5053735;28;20362;-42
2022/09/12 00:38:05;;;;;;;;;;;;;;;20.55;100.00;99106.09;5071222;28;19986;-41
2022/09/12 00:40:30;;;;;;;;;;;;;;;20.20;100.00;99117.25;5070667;28;19924;-42
2022/09/12 00:42:55;;;;;;;;;;;;;;;19.55;100.00;99119.97;5075364;28;20506;-41
2022/09/12 00:45:22;;;;;;;;;;;;;;;19.93;100.00;99113.94;5077146;28;20333;-42
2022/09/12 00:47:48;;;;;;;;;;;;;;;20.20;100.00;99112.03;5057785;28;20375;-41
2022/09/12 00:50:13;;;;;;;;;;;;;;;20.22;100.00;99104.09;5074597;28;19920;-41
2022/09/12 00:52:39;;;;;;;;;;;;;;;20.30;100.00;99106.16;5073249;28;19923;-42
2022/09/12 00:55:12;;;;;;;;;;;;;;;20.37;100.00;99102.19;5074174;28;19965;-41
2022/09/12 00:57:42;;;;;;;;;;;;;;;20.34;100.00;99097.16;5055059;28;19920;-41
2022/09/12 01:00:15;;;;;;;;;;;;;;;20.17;100.00;99095.72;5057246;28;19920;-41
2022/09/12 01:02:41;;;;;;;;;;;;;;;20.41;100.00;99088.78;5073863;28;20837;-41
2022/09/12 01:05:06;;;;;;;;;;;;;;;19.76;100.00;99100.25;5077316;28;20011;-41
2022/09/12 01:07:33;;;;;;;;;;;;;;;19.72;100.00;99096.19;5074776;28;19920;-40
2022/09/12 01:09:59;;;;;;;;;;;;;;;19.29;100.00;99106.88;5066406;28;19923;-41
2022/09/12 01:12:24;;;;;;;;;;;;;;;19.56;100.00;99101.56;5075041;28;19916;-40
2022/09/12 01:14:49;;;;;;;;;;;;;;;19.42;100.00;99097.28;5040856;28;19927;-40
2022/09/12 01:17:15;;;;;;;;;;;;;;;18.70;100.00;99104.59;5074914;28;20008;-40
2022/09/12 01:19:59;;;;;;;;;;;;;;;19.19;100.00;99103.22;5074639;28;19920;-40
2022/09/12 01:22:45;;;;;;;;;;;;;;;19.56;100.00;99096.34;5074722;28;20294;-40
2022/09/12 01:25:16;;;;;;;;;;;;;;;19.59;100.00;99092.69;5075269;28;19958;-40
2022/09/12 01:27:43;;;;;;;;;;;;;;;19.63;100.00;99081.09;5074146;28;20465;-40
2022/09/12 01:30:27;;;;;;;;;;;;;;;19.59;100.00;99083.09;5055737;28;19985;-40
2022/09/12 01:33:11;;;;;;;;;;;;;;;19.07;100.00;99083.97;5057969;28;19926;-40
2022/09/12 01:35:43;;;;;;;;;;;;;;;19.23;100.00;99083.78;5067006;28;19970;-40
2022/09/12 01:38:30;;;;;;;;;;;;;;;19.71;100.00;99072.78;5028228;28;20532;-42
2022/09/12 01:41:10;;;;;;;;;;;;;;;19.36;100.00;99074.22;5047323;28;19946;-40
2022/09/12 01:43:36;;;;;;;;;;;;;;;19.14;100.00;99074.78;5055021;28;19924;-40
2022/09/12 01:46:16;;;;;;;;;;;;;;;19.65;100.00;99069.59;5073709;28;20003;-40
2022/09/12 01:48:56;;;;;;;;;;;;;;;19.35;100.00;99066.47;5056429;28;20038;-40
2022/09/12 01:51:29;;;;;;;;;;;;;;;18.99;100.00;99075.78;5073529;28;19973;-42
2022/09/12 01:54:09;;;;;;;;;;;;;;;18.28;100.00;99077.66;5073319;28;19920;-42
2022/09/12 01:56:34;;;;;;;;;;;;;;;18.41;100.00;99074.31;5053948;28;19920;-42
2022/09/12 01:59:09;;;;;;;;;;;;;;;18.58;100.00;99074.06;5053247;28;19926;-42
2022/09/12 02:01:34;;;;;;;;;;;;;;;18.42;100.00;99071.59;5073268;28;19925;-42
2022/09/12 02:04:07;;;;;;;;;;;;;;;18.59;100.00;99065.31;5055467;28;19924;-41
2022/09/12 02:06:59;;;;;;;;;;;;;;;18.86;100.00;99060.13;5047104;28;20405;-42
2022/09/12 02:09:24;;;;;;;;;;;;;;;17.89;100.00;99058.34;5065919;28;19919;-41
2022/09/12 02:11:49;;;;;;;;;;;;;;;18.79;100.00;99048.38;5073356;28;19932;-42
2022/09/12 02:14:17;;;;;;;;;;;;;;;18.25;100.00;99054.41;5055097;28;20425;-42
2022/09/12 02:16:47;;;;;;;;;;;;;;;18.52;100.00;99050.97;5042241;28;20051;-41
2022/09/12 02:19:16;;;;;;;;;;;;;;;18.42;100.00;99055.09;5055857;28;19920;-41
2022/09/12 02:21:44;;;;;;;;;;;;;;;18.28;100.00;99048.16;5071743;28;19920;-42
2022/09/12 02:24:09;;;;;;;;;;;;;;;18.76;100.00;99049.38;5054909;28;19965;-42
2022/09/12 02:26:36;;;;;;;;;;;;;;;18.31;100.00;99056.59;5053454;28;19940;-42
2022/09/12 02:29:02;;;;;;;;;;;;;;;18.85;100.00;99053.22;5055408;28;20887;-42
2022/09/12 02:31:30;;;;;;;;;;;;;;;19.25;100.00;99050.59;5053500;28;19973;-42
2022/09/12 02:34:09;;;;;;;;;;;;;;;19.57;100.00;99045.78;5036071;28;19927;-42
2022/09/12 02:36:53;;;;;;;;;;;;;;;19.55;100.00;99047.66;5072305;28;19920;-42
2022/09/12 02:39:20;;;;;;;;;;;;;;;19.71;100.00;99049.28;5073388;28;19962;-42
2022/09/12 02:41:51;;;;;;;;;;;;;;;19.52;100.00;99045.25;5054485;28;20431;-42
2022/09/12 02:44:17;;;;;;;;;;;;;;;19.68;100.00;99042.41;5072744;28;19931;-42
2022/09/12 02:46:43;;;;;;;;;;;;;;;19.34;100.00;99047.34;5054828;28;19920;-42
2022/09/12 02:49:08;;;;;;;;;;;;;;;19.22;100.00;99041.16;5055122;28;19960;-42
2022/09/12 02:51:33;;;;;;;;;;;;;;;19.63;100.00;99040.13;5069699;28;20019;-42
2022/09/12 02:53:59;;;;;;;;;;;;;;;19.30;100.00;99037.22;5072468;28;20003;-42
2022/09/12 02:56:29;;;;;;;;;;;;;;;19.43;100.00;99033.69;5071169;28;19967;-42
2022/09/12 02:58:56;;;;;;;;;;;;;;;19.17;100.00;99035.41;5054994;28;20289;-42
2022/09/12 03:01:33;;;;;;;;;;;;;;;19.06;100.00;99030.06;5071365;28;19924;-42
2022/09/12 03:04:09;;;;;;;;;;;;;;;18.74;100.00;99030.38;5073424;28;20681;-42
2022/09/12 03:06:42;;;;;;;;;;;;;;;19.21;100.00;99034.28;5052637;28;19924;-42
2022/09/12 03:09:11;;;;;;;;;;;;;;;19.39;100.00;99026.97;5055239;28;19927;-42
2022/09/12 03:11:55;;;;;;;;;;;;;;;18.96;100.00;99029.84;5052601;28;19924;-42
2022/09/12 03:14:24;;;;;;;;;;;;;;;18.73;100.00;99033.94;5072825;28;20019;-42
2022/09/12 03:16:56;;;;;;;;;;;;;;;18.68;100.00;99027.34;5053832;28;20022;-42
2022/09/12 03:19:24;;;;;;;;;;;;;;;18.85;100.00;99026.28;5054968;28;19923;-42
2022/09/12 03:22:08;;;;;;;;;;;;;;;18.63;100.00;99029.41;5073156;28;19959;-42
2022/09/12 03:24:56;;;;;;;;;;;;;;;18.75;100.00;99029.47;5072527;28;19939;-42
2022/09/12 03:27:30;;;;;;;;;;;;;;;18.71;100.00;99024.56;5014191;28;20018;-42
2022/09/12 03:29:55;;;;;;;;;;;;;;;18.51;100.00;99033.66;5071208;28;19916;-42
2022/09/12 03:32:38;;;;;;;;;;;;;;;18.82;100.00;99029.94;5053011;28;19927;-42
2022/09/12 03:35:03;;;;;;;;;;;;;;;19.16;100.00;99020.72;5053735;28;19955;-42
2022/09/12 03:37:28;;;;;;;;;;;;;;;18.82;100.00;99022.09;5070735;28;20357;-42
2022/09/12 03:39:54;;;;;;;;;;;;;;;19.05;100.00;99017.97;5070903;28;19920;-42
2022/09/12 03:42:19;;;;;;;;;;;;;;;18.55;100.00;99024.72;5069247;28;19928;-42
2022/09/12 03:44:44;;;;;;;;;;;;;;;18.38;100.00;99029.25;5071890;28;19920;-42
2022/09/12 03:47:09;;;;;;;;;;;;;;;18.86;100.00;99027.94;5070885;28;20015;-42
2022/09/12 03:49:35;;;;;;;;;;;;;;;18.62;100.00;99027.75;5070883;28;19989;-42
2022/09/12 03:52:00;;;;;;;;;;;;;;;18.30;100.00;99030.66;5070662;28;19920;-42
2022/09/12 03:54:25;;;;;;;;;;;;;;;17.93;100.00;99032.97;5072066;28;19933;-42
2022/09/12 03:56:50;;;;;;;;;;;;;;;17.85;100.00;99025.59;5071379;28;19920;-43
2022/09/12 03:59:15;;;;;;;;;;;;;;;17.98;100.00;99030.91;5072738;28;19967;-42
2022/09/12 04:01:41;;;;;;;;;;;;;;;18.26;100.00;99030.00;5073066;28;19986;-42
2022/09/12 04:04:07;;;;;;;;;;;;;;;18.08;100.00;99025.94;5071611;28;20039;-42
2022/09/12 04:06:32;;;;;;;;;;;;;;;17.97;100.00;99029.22;5073117;28;19916;-42
2022/09/12 04:08:57;;;;;;;;;;;;;;;17.82;100.00;99036.22;5069546;28;20410;-42
2022/09/12 04:11:23;;;;;;;;;;;;;;;18.53;100.00;99023.97;5072359;28;19922;-42
2022/09/12 04:13:48;;;;;;;;;;;;;;;18.57;100.00;99028.06;5071397;28;19927;-43
2022/09/12 04:16:14;;;;;;;;;;;;;;;18.35;100.00;99029.41;5072086;28;20021;-42
2022/09/12 04:18:39;;;;;;;;;;;;;;;18.40;100.00;99036.94;5073809;28;19920;-42
2022/09/12 04:21:08;;;;;;;;;;;;;;;18.08;100.00;99034.59;5072281;28;20030;-42
2022/09/12 04:23:34;;;;;;;;;;;;;;;17.93;100.00;99033.78;5071403;28;19949;-42
2022/09/12 04:26:00;;;;;;;;;;;;;;;18.02;100.00;99036.75;5070031;28;20639;-42
2022/09/12 04:28:25;;;;;;;;;;;;;;;18.10;100.00;99034.50;5071008;28;19920;-42
2022/09/12 04:30:50;;;;;;;;;;;;;;;17.51;100.00;99043.22;5073101;28;19920;-42
2022/09/12 04:33:16;;;;;;;;;;;;;;;17.86;100.00;99039.44;5072130;28;19925;-42
2022/09/12 04:35:41;;;;;;;;;;;;;;;18.12;100.00;99037.84;5071264;28;19920;-43
2022/09/12 04:38:07;;;;;;;;;;;;;;;17.53;100.00;99032.72;5069177;28;19949;-42
2022/09/12 04:40:32;;;;;;;;;;;;;;;18.28;100.00;99033.34;5072175;28;19916;-42
2022/09/12 04:42:57;;;;;;;;;;;;;;;17.73;100.00;99031.53;5072070;28;19920;-42
2022/09/12 04:45:22;;;;;;;;;;;;;;;17.98;100.00;99030.91;5071527;28;19998;-42
2022/09/12 04:47:47;;;;;;;;;;;;;;;18.11;100.00;99030.94;5053656;28;19916;-42
2022/09/12 04:50:13;;;;;;;;;;;;;;;17.82;100.00;99024.97;5073215;28;19916;-42
2022/09/12 04:52:39;;;;;;;;;;;;;;;17.33;100.00;99023.50;5071960;28;20019;-42
2022/09/12 04:55:04;;;;;;;;;;;;;;;17.47;100.00;99026.13;5043000;28;19947;-42
2022/09/12 04:57:29;;;;;;;;;;;;;;;18.00;100.00;99023.00;5070761;28;19975;-41
2022/09/12 04:59:55;;;;;;;;;;;;;;;17.89;100.00;99021.88;5072231;28;20414;-42
2022/09/12 05:02:20;;;;;;;;;;;;;;;18.30;100.00;99023.66;5071509;28;19920;-42
2022/09/12 05:04:45;;;;;;;;;;;;;;;17.77;100.00;99026.03;5071673;28;20357;-42
2022/09/12 05:07:11;;;;;;;;;;;;;;;18.02;100.00;99032.38;5071450;28;20012;-42
2022/09/12 05:09:36;;;;;;;;;;;;;;;18.03;100.00;99021.03;5072849;28;19927;-42
2022/09/12 05:12:01;;;;;;;;;;;;;;;17.50;100.00;99030.31;5072730;28;20282;-42
2022/09/12 05:14:27;;;;;;;;;;;;;;;17.73;100.00;99026.31;5072320;28;19923;-42
2022/09/12 05:16:52;;;;;;;;;;;;;;;17.53;100.00;99023.16;5071839;28;20911;-42
2022/09/12 05:19:17;;;;;;;;;;;;;;;17.58;100.00;99022.03;5073073;28;19916;-42
2022/09/12 05:21:43;;;;;;;;;;;;;;;18.25;100.00;99017.06;5072673;28;19916;-42
2022/09/12 05:24:08;;;;;;;;;;;;;;;18.16;100.00;99016.72;5072965;28;19976;-42
2022/09/12 05:26:33;;;;;;;;;;;;;;;17.70;100.00;99018.72;5071250;28;19949;-42
2022/09/12 05:28:59;;;;;;;;;;;;;;;17.96;100.00;99012.75;5075367;28;20010;-42
2022/09/12 05:31:25;;;;;;;;;;;;;;;18.11;100.00;99015.31;5076280;28;20006;-41
2022/09/12 05:33:50;;;;;;;;;;;;;;;18.63;100.00;99013.75;5076534;28;19916;-41
2022/09/12 05:36:16;;;;;;;;;;;;;;;18.41;100.00;99009.13;5056407;28;20953;-41
2022/09/12 05:38:42;;;;;;;;;;;;;;;18.23;100.00;99009.34;5076080;28;20417;-42
2022/09/12 05:41:08;;;;;;;;;;;;;;;17.71;100.00;99017.75;5076127;28;19945;-42
2022/09/12 05:43:33;;;;;;;;;;;;;;;18.25;100.00;99010.09;5075363;28;19920;-42
2022/09/12 05:45:59;;;;;;;;;;;;;;;18.21;100.00;99006.00;5074912;28;19959;-42
2022/09/12 05:48:25;;;;;;;;;;;;;;;18.47;100.00;99006.09;5076131;28;19991;-41
2022/09/12 05:50:50;;;;;;;;;;;;;;;18.76;100.00;99002.44;5074771;28;19920;-42
2022/09/12 05:53:16;;;;;;;;;;;;;;;18.21;100.00;99008.59;5075783;28;20366;-42
2022/09/12 05:55:41;;;;;;;;;;;;;;;18.58;100.00;99008.84;5073901;28;20425;-41
2022/09/12 05:58:06;;;;;;;;;;;;;;;18.69;100.00;99014.19;5075467;28;20368;-42
2022/09/12 06:00:31;;;;;;;;;;;;;;;18.22;100.00;99012.88;5075057;28;19912;-42
2022/09/12 06:02:57;;;;;;;;;;;;;;;18.32;100.00;99019.19;5075170;28;19977;-42
2022/09/12 06:05:22;;;;;;;;;;;;;;;18.63;100.00;99017.19;5075349;28;19920;-42
2022/09/12 06:07:47;;;;;;;;;;;;;;;18.75;100.00;99021.63;5075261;28;19923;-42
2022/09/12 06:10:12;;;;;;;;;;;;;;;18.57;100.00;99018.44;5075325;28;19916;-42
2022/09/12 06:12:38;;;;;;;;;;;;;;;18.22;100.00;99022.47;5074555;28;19927;-42
2022/09/12 06:15:03;;;;;;;;;;;;;;;18.73;100.00;99014.84;5056271;28;19922;-41
2022/09/12 06:17:29;;;;;;;;;;;;;;;18.72;100.00;99019.22;5074905;28;19923;-42
2022/09/12 06:19:54;;;;;;;;;;;;;;;18.54;100.00;99017.81;5063454;28;20012;-41
2022/09/12 06:22:19;;;;;;;;;;;;;;;19.38;100.00;99004.41;5054172;28;19971;-42
2022/09/12 06:24:45;;;;;;;;;;;;;;;19.25;100.00;99013.19;5074490;28;20495;-42
2022/09/12 06:27:10;;;;;;;;;;;;;;;19.59;100.00;99007.34;5073824;28;19959;-42
2022/09/12 06:29:35;;;;;;;;;;;;;;;19.66;100.00;99007.75;5074222;28;20054;-42
2022/09/12 06:32:01;;;;;;;;;;;;;;;19.30;100.00;99011.13;5073180;28;19920;-42
2022/09/12 06:34:26;;;;;;;;;;;;;;;19.57;100.00;99008.41;5074482;28;19920;-42
2022/09/12 06:36:51;;;;;;;;;;;;;;;19.35;100.00;99015.06;5073065;28;20455;-42
2022/09/12 06:39:18;;;;;;;;;;;;;;;19.39;100.00;99007.88;5072823;28;19915;-42
2022/09/12 06:41:43;;;;;;;;;;;;;;;19.52;100.00;99005.25;5073248;28;20070;-42
2022/09/12 06:44:11;;;;;;;;;;;;;;;19.69;100.00;98998.91;5073844;28;20904;-42
2022/09/12 06:46:36;;;;;;;;;;;;;;;19.97;100.00;98987.31;5055896;28;19962;-42
2022/09/12 06:49:02;;;;;;;;;;;;;;;19.62;100.00;98995.84;5074203;28;19962;-41
2022/09/12 06:51:27;;;;;;;;;;;;;;;20.14;100.00;98991.34;5073745;28;19927;-42
2022/09/12 06:53:56;;;;;;;;;;;;;;;20.07;100.00;98990.97;5055534;28;19926;-42
2022/09/12 06:56:22;;;;;;;;;;;;;;;20.26;100.00;98980.84;5073327;28;20388;-42
2022/09/12 06:58:48;;;;;;;;;;;;;;;20.29;100.00;98984.19;5074648;28;20324;-42
2022/09/12 07:01:24;;;;;;;;;;;;;;;20.26;100.00;98982.63;5055727;28;19973;-42
2022/09/12 07:03:50;;;;;;;;;;;;;;;20.15;100.00;98974.72;5053711;28;20039;-42
2022/09/12 07:06:16;;;;;;;;;;;;;;;20.49;100.00;98975.72;5055756;28;20456;-42
2022/09/12 07:08:41;;;;;;;;;;;;;;;20.28;100.00;98978.13;5073775;28;19972;-42
2022/09/12 07:11:11;;;;;;;;;;;;;;;20.56;100.00;98983.97;5074533;28;19939;-42
2022/09/12 07:13:37;;;;;;;;;;;;;;;20.26;100.00;98986.06;5073732;28;20030;-42
2022/09/12 07:16:02;;;;;;;;;;;;;;;21.59;100.00;98971.00;5074123;28;20031;-42
2022/09/12 07:18:28;;;;;;;;;;;;;;;22.00;100.00;98978.22;5073668;28;19919;-42
2022/09/12 07:20:53;;;;;;;;;;;;;;;20.86;100.00;98979.09;5073789;28;19922;-42
2022/09/12 07:23:19;;;;;;;;;;;;;;;21.81;100.00;98978.84;5072743;28;19924;-42
2022/09/12 07:25:50;;;;;;;;;;;;;;;21.05;100.00;98988.16;5073586;28;19939;-42
2022/09/12 07:28:16;;;;;;;;;;;;;;;21.14;100.00;98992.72;5074103;28;19920;-42
2022/09/12 07:30:41;;;;;;;;;;;;;;;22.43;100.00;98976.59;5073296;28;19920;-42
2022/09/12 07:33:06;;;;;;;;;;;;;;;22.46;100.00;98982.41;5073389;28;19924;-42
2022/09/12 07:35:32;;;;;;;;;;;;;;;22.80;100.00;98981.44;5073961;28;19970;-42
2022/09/12 07:37:57;;;;;;;;;;;;;;;23.37;100.00;98978.34;5073635;28;19923;-42
2022/09/12 07:40:23;;;;;;;;;;;;;;;22.63;100.00;98978.41;5073385;28;19920;-42
2022/09/12 07:42:48;;;;;;;;;;;;;;;22.87;100.00;98982.59;5072997;28;19971;-41
2022/09/12 07:45:14;;;;;;;;;;;;;;;22.68;100.00;98981.47;5073615;28;20292;-42
2022/09/12 07:47:39;;;;;;;;;;;;;;;23.47;100.00;98982.81;5073230;28;19920;-42
2022/09/12 07:50:05;;;;;;;;;;;;;;;23.73;100.00;98980.56;5070878;28;19920;-42
2022/09/12 07:52:30;;;;;;;;;;;;;;;23.44;100.00;98993.59;5072745;28;20369;-42
2022/09/12 07:54:55;;;;;;;;;;;;;;;22.90;100.00;98996.31;5073832;28;19920;-42
2022/09/12 07:57:20;;;;;;;;;;;;;;;22.76;100.00;99001.84;5072323;28;19916;-42
2022/09/12 07:59:46;;;;;;;;;;;;;;;21.97;100.00;99002.06;5073340;28;19920;-42
2022/09/12 08:02:14;;;;;;;;;;;;;;;22.54;100.00;98997.53;5072700;28;19919;-42
2022/09/12 08:04:41;;;;;;;;;;;;;;;23.44;100.00;98988.34;5073402;28;20440;-42
2022/09/12 08:07:06;;;;;;;;;;;;;;;23.27;100.00;98998.50;5073129;28;19986;-42
2022/09/12 08:09:31;;;;;;;;;;;;;;;23.04;100.00;99000.44;5073582;28;19920;-42
2022/09/12 08:11:56;;;;;;;;;;;;;;;23.21;100.00;99006.88;5073030;28;19927;-41
2022/09/12 08:14:22;;;;;;;;;;;;;;;23.67;100.00;98988.97;5072688;28;20019;-42
2022/09/12 08:16:47;;;;;;;;;;;;;;;23.44;100.00;98990.97;5073201;28;20010;-42
2022/09/12 08:19:12;;;;;;;;;;;;;;;23.57;100.00;98994.22;5072160;28;19922;-42
2022/09/12 08:21:37;;;;;;;;;;;;;;;24.94;100.00;98982.13;5071202;28;19917;-42
2022/09/12 08:24:03;;;;;;;;;;;;;;;25.22;100.00;98986.50;5072670;28;19924;-42
2022/09/12 08:26:29;;;;;;;;;;;;;;;24.71;100.00;98992.97;5072869;28;19969;-42
2022/09/12 08:28:54;;;;;;;;;;;;;;;24.50;100.00;98994.91;5055585;28;19924;-42
2022/09/12 08:31:20;;;;;;;;;;;;;;;23.60;100.00;99004.44;5072359;28;19927;-42
2022/09/12 08:33:45;;;;;;;;;;;;;;;24.52;100.00;98991.16;5073664;28;20484;-42
2022/09/12 08:36:12;;;;;;;;;;;;;;;24.26;100.00;99000.53;5073004;28;19920;-42
2022/09/12 08:38:38;;;;;;;;;;;;;;;23.85;100.00;99007.63;5073683;28;19935;-42
2022/09/12 08:41:04;;;;;;;;;;;;;;;24.09;100.00;99000.22;5072823;28;19919;-42
2022/09/12 08:43:29;;;;;;;;;;;;;;;23.89;100.00;99001.13;5073943;28;19920;-42
2022/09/12 08:45:59;;;;;;;;;;;;;;;24.73;100.00;98998.09;5071764;28;19991;-42
2022/09/12 08:48:24;;;;;;;;;;;;;;;25.18;100.00;98989.56;5055441;28;19922;-42
2022/09/12 08:50:49;;;;;;;;;;;;;;;24.59;100.00;98994.91;5072432;28;19920;-42
2022/09/12 08:53:15;;;;;;;;;;;;;;;24.81;100.00;98980.63;5053441;28;19920;-42
2022/09/12 08:55:44;;;;;;;;;;;;;;;25.03;100.00;98982.09;5044480;28;19990;-42
2022/09/12 08:58:16;;;;;;;;;;;;;;;25.53;100.00;98985.47;5073154;28;19916;-42
2022/09/12 09:00:51;;;;;;;;;;;;;;;25.56;100.00;98985.16;5071765;28;19920;-42
2022/09/12 09:03:23;;;;;;;;;;;;;;;26.18;100.00;98980.97;5076442;28;19928;-42
2022/09/12 09:05:50;;;;;;;;;;;;;;;25.31;100.00;98987.47;5046975;28;20007;-42
2022/09/12 09:08:34;;;;;;;;;;;;;;;25.65;100.00;98984.28;5076559;28;19916;-42
2022/09/12 09:10:59;;;;;;;;;;;;;;;25.71;100.00;98989.00;5076022;28;19920;-42
2022/09/12 09:16:14;;;;;;;;;;;;;;;26.12;100.00;98978.94;5075975;28;19977;-42
2022/09/12 09:18:39;;;;;;;;;;;;;;;26.17;100.00;98967.94;5076420;28;19981;-42
2022/09/12 09:21:08;;;;;;;;;;;;;;;26.85;100.00;98968.22;5074611;28;20797;-42
2022/09/12 09:23:41;;;;;;;;;;;;;;;27.22;100.00;98966.34;5057183;28;19924;-41
2022/09/12 09:26:09;;;;;;;;;;;;;;;26.55;100.00;98961.56;5075155;28;19946;-42
2022/09/12 09:28:41;;;;;;;;;;;;;;;26.64;100.00;98970.34;5075912;28;20490;-42
2022/09/12 09:31:11;;;;;;;;;;;;;;;26.51;99.50;98960.16;5054046;28;19930;-42
2022/09/12 09:33:37;;;;;;;;;;;;;;;26.67;98.55;98968.25;5058031;28;19928;-42
2022/09/12 09:36:02;;;;;;;;;;;;;;;26.69;98.62;98963.66;5075207;28;20001;-42
2022/09/12 09:38:37;;;;;;;;;;;;;;;25.99;100.00;98960.00;5076000;28;20014;-42
2022/09/12 09:41:16;;;;;;;;;;;;;;;27.02;99.75;98961.22;5056513;28;19945;-42
2022/09/12 09:43:41;;;;;;;;;;;;;;;26.51;99.53;98965.44;5056815;28;19927;-42
2022/09/12 09:46:06;;;;;;;;;;;;;;;25.78;99.76;98970.78;5075817;28;20414;-42
2022/09/12 09:48:33;;;;;;;;;;;;;;;26.97;99.80;98976.72;5066294;28;20625;-41
2022/09/12 09:50:59;;;;;;;;;;;;;;;26.28;99.88;98968.53;5055953;28;19951;-42
2022/09/12 09:53:24;;;;;;;;;;;;;;;26.84;100.00;98974.47;5074575;28;20073;-42
2022/09/12 09:55:49;;;;;;;;;;;;;;;26.07;99.82;98976.75;5074738;28;19920;-42
2022/09/12 09:58:28;;;;;;;;;;;;;;;26.61;99.56;98974.13;5075461;28;19916;-42
2022/09/12 10:00:56;;;;;;;;;;;;;;;26.97;96.16;98963.50;5075432;28;19971;-42
2022/09/12 10:03:37;;;;;;;;;;;;;;;27.64;95.58;98957.63;5056647;28;19946;-42
2022/09/12 10:06:18;;;;;;;;;;;;;;;28.27;92.34;98954.50;5057110;28;19916;-42
2022/09/12 10:08:43;;;;;;;;;;;;;;;27.60;94.22;98956.25;5075639;28;20005;-42
2022/09/12 10:11:15;;;;;;;;;;;;;;;28.65;88.96;98946.13;5074177;28;19974;-42
2022/09/12 10:13:41;;;;;;;;;;;;;;;28.28;87.21;98950.88;5074189;28;20658;-42
2022/09/12 10:16:18;;;;;;;;;;;;;;;28.38;89.14;98945.41;5073973;28;20031;-42
2022/09/12 10:18:43;;;;;;;;;;;;;;;27.72;90.46;98952.38;5075636;28;19916;-42
2022/09/12 10:21:13;;;;;;;;;;;;;;;28.10;90.32;98947.50;5074081;28;19931;-42
2022/09/12 10:23:40;;;;;;;;;;;;;;;28.26;88.27;98946.72;5056160;28;19924;-42
2022/09/12 10:26:12;;;;;;;;;;;;;;;28.59;85.77;98934.34;5039345;28;19942;-42
2022/09/12 10:28:38;;;;;;;;;;;;;;;28.28;89.65;98939.44;5056566;28;19920;-42
2022/09/12 10:31:03;;;;;;;;;;;;;;;28.26;88.35;98931.66;5074464;28;19919;-42
2022/09/12 10:33:30;;;;;;;;;;;;;;;28.73;86.76;98923.06;5075176;28;19945;-42
2022/09/12 10:35:55;;;;;;;;;;;;;;;29.39;85.52;98930.91;5049180;28;19917;-42
2022/09/12 10:38:30;;;;;;;;;;;;;;;29.42;84.20;98927.88;5073413;28;19923;-42
2022/09/12 10:41:00;;;;;;;;;;;;;;;29.43;83.63;98928.75;5056013;28;19925;-42
2022/09/12 10:43:32;;;;;;;;;;;;;;;29.18;84.86;98923.53;5074222;28;19958;-42
2022/09/12 10:45:58;;;;;;;;;;;;;;;29.93;84.39;98923.03;5075104;28;19927;-42
2022/09/12 10:48:30;;;;;;;;;;;;;;;30.25;81.15;98917.69;5074538;28;19916;-42
2022/09/12 10:50:56;;;;;;;;;;;;;;;30.22;79.57;98924.16;5074099;28;20620;-42
2022/09/12 10:53:22;;;;;;;;;;;;;;;31.28;78.21;98925.06;5073291;28;19920;-42
2022/09/12 10:55:53;;;;;;;;;;;;;;;31.16;74.90;98916.72;5074799;28;19946;-43
2022/09/12 10:58:33;;;;;;;;;;;;;;;28.89;77.49;98916.91;5074572;28;19916;-42
2022/09/12 11:01:04;;;;;;;;;;;;;;;29.31;79.16;98915.84;5055663;28;20790;-42
2022/09/12 11:03:38;;;;;;;;;;;;;;;29.77;80.91;98915.19;5055997;28;19951;-42
2022/09/12 11:06:03;;;;;;;;;;;;;;;29.24;78.71;98919.34;5055962;28;19916;-42
2022/09/12 11:08:37;;;;;;;;;;;;;;;29.80;83.57;98920.94;5074523;28;19923;-42
2022/09/12 11:11:21;;;;;;;;;;;;;;;29.59;77.84;98916.22;5073851;28;19916;-42
2022/09/12 11:13:50;;;;;;;;;;;;;;;30.51;79.47;98912.00;5074524;28;19959;-42
2022/09/12 11:16:18;;;;;;;;;;;;;;;30.88;76.07;98913.84;5055643;28;19920;-42
2022/09/12 11:18:49;;;;;;;;;;;;;;;29.60;77.81;98909.94;5073815;28;19916;-42
2022/09/12 11:21:17;;;;;;;;;;;;;;;29.94;80.19;98902.63;5053345;28;19974;-42
2022/09/12 11:23:49;;;;;;;;;;;;;;;29.64;77.70;98901.59;5055909;28;20808;-42
2022/09/12 11:26:33;;;;;;;;;;;;;;;30.21;75.84;98898.59;5055208;28;20285;-42
2022/09/12 11:29:05;;;;;;;;;;;;;;;29.88;72.02;98896.19;5074175;28;19919;-42
2022/09/12 11:31:30;;;;;;;;;;;;;;;30.68;73.20;98897.56;5054624;28;20645;-42
2022/09/12 11:33:56;;;;;;;;;;;;;;;31.65;70.05;98900.16;5074178;28;19981;-42
2022/09/12 11:36:30;;;;;;;;;;;;;;;32.02;67.21;98887.69;5072901;28;19981;-42
2022/09/12 11:39:01;;;;;;;;;;;;;;;30.66;67.92;98888.13;5056193;28;20021;-42
2022/09/12 11:41:30;;;;;;;;;;;;;;;30.92;71.48;98893.03;5073177;28;19957;-42
2022/09/12 11:43:56;;;;;;;;;;;;;;;31.46;66.32;98887.44;5056386;28;20007;-42
2022/09/12 11:46:22;;;;;;;;;;;;;;;31.88;69.23;98885.84;5073105;28;19916;-42
2022/09/12 11:48:50;;;;;;;;;;;;;;;32.53;65.71;98876.03;5073476;28;19923;-42
2022/09/12 11:51:17;;;;;;;;;;;;;;;32.11;65.51;98879.56;5055047;28;19920;-42
2022/09/12 11:53:42;;;;;;;;;;;;;;;31.55;62.92;98878.34;5073332;28;20451;-42
2022/09/12 11:56:11;;;;;;;;;;;;;;;32.23;68.91;98881.53;5072505;28;20031;-42
2022/09/12 11:58:36;;;;;;;;;;;;;;;31.97;66.75;98873.28;5055121;28;19923;-42
2022/09/12 12:01:19;;;;;;;;;;;;;;;32.96;56.75;98869.75;5073373;28;20030;-42
2022/09/12 12:03:45;;;;;;;;;;;;;;;33.06;56.27;98868.41;5054920;28;19973;-42
2022/09/12 12:06:12;;;;;;;;;;;;;;;33.25;60.29;98863.34;5054419;28;20021;-42
2022/09/12 12:08:39;;;;;;;;;;;;;;;33.98;57.54;98860.91;5073125;28;19916;-42
2022/09/12 12:11:05;;;;;;;;;;;;;;;34.35;54.44;98853.34;5054425;28;19973;-40
2022/09/12 12:13:47;;;;;;;;;;;;;;;33.96;55.15;98865.63;5053736;28;19919;-40
2022/09/12 12:16:23;;;;;;;;;;;;;;;34.71;55.36;98857.44;5054450;28;19923;-42
2022/09/12 12:18:52;;;;;;;;;;;;;;;34.90;53.72;98859.25;5055041;28;19916;-41
2022/09/12 12:21:20;;;;;;;;;;;;;;;34.45;56.79;98859.09;5053327;28;19924;-42
2022/09/12 12:24:04;;;;;;;;;;;;;;;33.25;47.08;98847.34;5055121;28;19927;-42
2022/09/12 12:26:38;;;;;;;;;;;;;;;32.98;53.36;98851.69;5072322;28;19916;-42
2022/09/12 12:29:11;;;;;;;;;;;;;;;32.87;50.14;98847.75;5072824;28;20387;-42
2022/09/12 12:31:55;;;;;;;;;;;;;;;34.00;57.96;98844.66;5071819;28;19928;-42
2022/09/12 12:34:39;;;;;;;;;;;;;;;34.72;51.79;98835.84;5070090;28;19923;-42
2022/09/12 12:37:19;;;;;;;;;;;;;;;33.88;53.17;98831.09;5054005;28;19920;-42
2022/09/12 12:39:52;;;;;;;;;;;;;;;34.01;49.96;98830.28;5079965;28;19923;-42
2022/09/12 12:42:33;;;;;;;;;;;;;;;32.32;47.05;98820.91;5076920;28;19959;-42
2022/09/12 12:45:03;;;;;;;;;;;;;;;32.50;53.11;98829.25;5078429;28;19916;-42
2022/09/12 12:47:34;;;;;;;;;;;;;;;33.03;58.20;98836.75;5059161;28;20391;-42